Westview, KY

4:01 PM CDT on September 01, 2014 (GMT -0500)
Eveleigh Road | Change Station
CLOSE
Current Station
Personal Weather Station
Location: Leitchfield, KY
Elevation: 670 ft
Nearby Weather Stations

Elev 670 ft 37.58 °N, 86.34 °W | Updated 16 seconds ago

Mostly Cloudy
Mostly Cloudy
86.5 °F
Feels Like 97 °F
N
10.7
Wind Variable Wind from South
Gusts 11.4 mph

Today
High -- | Low -- °F
--% Chance of Precip.
Yesterday
High -- | Low -- °F
Precip. -- in
6:15 AM 7:14 PM
Waxing Crescent, 44% visible
Pressure 29.93 in
Visibility 10.0 miles
Clouds Few 22000 ft
Heat Index 97 °F
Dew Point 76 °F
Humidity 71%
Rainfall 0.00 in
Snow Depth Not available.
UV 4 out of 12
Pollen 11.10 out of 12
Ozone Good
PM2.5 Moderate
Flu Activity Not available.
METAR KFTK 012058Z AUTO 20010G19KT 10SM FEW220 28/22 A2994 RMK AO2 LTG DSNT SE SLP134 T02820215 57014

More Conditions Fewer Conditions

Pressure 29.93 in
Visibility 10.0 miles
Clouds Few 22000 ft
Heat Index 97 °F
Dew Point 76 °F
Humidity 71%
Rainfall 0.00 in
Snow Depth Not available.
UV 4 out of 12
Pollen 11.10 out of 12
Ozone Good
PM2.5 Moderate
Flu Activity Not available.
METAR KFTK 012058Z AUTO 20010G19KT 10SM FEW220 28/22 A2994 RMK AO2 LTG DSNT SE SLP134 T02820215 57014

More Conditions Fewer Conditions

10-Day Weather Forecast

Almanac

Astronomy

Sep. 01, 2014 Rise Set
Actual Time 6:15 AM CDT 7:14 PM CDT
Civil Twilight 5:48 AM CDT 7:41 PM CDT
Nautical Twilight 5:17 AM CDT 8:13 PM CDT
Astronomical Twilight 4:44 AM CDT 8:46 PM CDT
Moon 12:53 PM CDT 11:23 PM CDT
Length of Visible Light 13h 52m
Length of Day
12h 58m
Tomorrow will be 2m 19s shorter.
Waxing Crescent, 44% of the Moon is Illuminated
Today
Waxing Crescent
Sep 2
First Quarter
Sep 8
Full
Sep 15
Last Quarter
Sep 24
New

Today's Extremes

State Highs State Lows

Community

WunderPhotos

Upload Photos

1,749,407 photos uploaded!

WunderBlogs® & News

Nearby

Air Quality

  Air Quality AQ Index Pollutant
Yesterday Good
PM10
Yesterday Good
OZONE
Current Moderate
PM2.5
Current Good
OZONE
Monday Moderate
PM2.5
Monday Good
OZONE
Tuesday Moderate
PM2.5
Tuesday Good
OZONE

Snow Depth

Station Depth Elevation
No new snow has been reported.

Earthquake Activity

City Distance Mag. Time & Date
No recent earthquake activity has been reported nearby.
Minimum magnitude displayed is 2.5.

Coastal Water Temperatures

Place Temperature
No Stations Reporting

Nearby Weather Stations